CFLEX CYCD-CYCD

Flight info

Callsign CFLEX
Flight time N/A
Altitude 2000
Route YVR
Aircraft B58T/L-SDFRY/C

Departure

Time 2026-05-03 22:51
Airport Nanaimo Airport (CYCD)

Arrival

Time N/A
Airport Nanaimo Airport (CYCD)
Time Latitude Longitude Altitude Speed Heading
2026-05-03 22:38 49.05293 -123.87333 88 ft 0 kts 265°
2026-05-03 22:41 49.05268 -123.87308 88 ft 13 kts 126°
2026-05-03 22:42 49.05174 -123.87263 90 ft 21 kts 186°
2026-05-03 22:42 49.04962 -123.87259 92 ft 34 kts 179°
2026-05-03 22:42 49.04737 -123.87270 93 ft 29 kts 183°
2026-05-03 22:42 49.04610 -123.87184 94 ft 11 kts 135°
2026-05-03 22:43 49.04593 -123.87163 94 ft 0 kts 31°
2026-05-03 22:43 49.04596 -123.87162 94 ft 0 kts
2026-05-03 22:49 49.04599 -123.87158 94 ft 2 kts 59°
2026-05-03 22:49 49.04582 -123.87131 94 ft 9 kts 145°
2026-05-03 22:50 49.04583 -123.87046 94 ft 11 kts 42°
2026-05-03 22:50 49.04678 -123.87025 94 ft 44 kts
2026-05-03 22:50 49.05253 -123.87018 129 ft 110 kts
2026-05-03 22:50 49.06368 -123.86995 638 ft 124 kts
2026-05-03 22:51 49.07226 -123.86824 1155 ft 125 kts 23°
2026-05-03 22:51 49.07674 -123.86216 1454 ft 134 kts 56°
2026-05-03 22:51 49.07789 -123.84779 1754 ft 150 kts 98°
2026-05-03 22:51 49.07120 -123.83603 2213 ft 151 kts 152°
2026-05-03 22:52 49.06116 -123.83032 2473 ft 161 kts 160°
2026-05-03 22:52 49.05026 -123.82372 2654 ft 174 kts 157°
2026-05-03 22:52 49.03988 -123.81246 2602 ft 191 kts 140°
2026-05-03 22:52 49.03195 -123.79670 2529 ft 188 kts 117°
2026-05-03 22:53 49.02677 -123.77875 2545 ft 182 kts 103°
2026-05-03 22:53 49.02259 -123.76240 3165 ft 155 kts 120°
2026-05-03 22:53 49.01727 -123.74866 3698 ft 148 kts 121°
2026-05-03 22:53 49.01098 -123.73579 4048 ft 156 kts 128°
2026-05-03 22:54 49.00373 -123.72175 3969 ft 174 kts 127°
2026-05-03 22:54 48.99643 -123.70669 4026 ft 176 kts 123°
2026-05-03 22:54 48.98975 -123.69077 4006 ft 180 kts 121°
2026-05-03 22:54 48.98268 -123.67565 4098 ft 177 kts 127°
2026-05-03 22:55 48.97556 -123.65983 3982 ft 184 kts 123°
2026-05-03 22:55 48.96841 -123.64403 4059 ft 180 kts 126°
2026-05-03 22:55 48.96097 -123.62867 4071 ft 180 kts 124°
2026-05-03 22:55 48.95427 -123.61272 4078 ft 181 kts 121°
2026-05-03 22:56 48.94727 -123.59639 4010 ft 184 kts 123°
2026-05-03 22:56 48.94025 -123.58028 4037 ft 182 kts 122°
2026-05-03 22:56 48.93228 -123.56554 4048 ft 182 kts 142°
2026-05-03 22:56 48.92036 -123.55965 4011 ft 183 kts 186°
2026-05-03 22:57 48.90850 -123.56619 4039 ft 179 kts 205°
2026-05-03 22:57 48.89711 -123.57412 4045 ft 182 kts 205°
2026-05-03 22:57 48.88562 -123.58238 4053 ft 183 kts 207°
2026-05-03 22:57 48.87432 -123.59126 4111 ft 181 kts 209°
2026-05-03 22:58 48.86342 -123.59954 4517 ft 171 kts 205°
2026-05-03 22:58 48.85230 -123.60779 4506 ft 179 kts 206°
2026-05-03 22:58 48.84111 -123.61584 4598 ft 177 kts 204°
2026-05-03 22:58 48.83078 -123.62579 4541 ft 182 kts 225°
2026-05-03 22:59 48.82337 -123.64121 4587 ft 179 kts 234°
2026-05-03 22:59 48.81592 -123.65662 4571 ft 182 kts 234°
2026-05-03 22:59 48.80848 -123.67223 4576 ft 182 kts 234°
2026-05-03 22:59 48.80076 -123.68770 4542 ft 185 kts 232°
2026-05-03 23:00 48.79317 -123.70358 4506 ft 185 kts 236°
2026-05-03 23:00 48.78575 -123.71913 4544 ft 182 kts 234°
2026-05-03 23:00 48.77801 -123.73446 4517 ft 185 kts 233°
2026-05-03 23:00 48.77027 -123.75012 4494 ft 185 kts 230°
2026-05-03 23:01 48.75936 -123.75986 4475 ft 185 kts 196°
2026-05-03 23:01 48.74701 -123.76506 4496 ft 184 kts 195°
2026-05-03 23:01 48.73443 -123.76849 4492 ft 184 kts 176°
2026-05-03 23:01 48.72264 -123.76168 4492 ft 183 kts 140°
2026-05-03 23:02 48.71460 -123.74684 4470 ft 183 kts 119°
2026-05-03 23:02 48.70928 -123.72803 3893 ft 204 kts 109°
2026-05-03 23:02 48.70438 -123.70812 3611 ft 202 kts 108°
2026-05-03 23:02 48.69967 -123.68823 3365 ft 199 kts 108°
2026-05-03 23:03 48.69484 -123.66866 3057 ft 199 kts 110°
2026-05-03 23:03 48.69016 -123.64891 2733 ft 199 kts 104°
2026-05-03 23:03 48.68701 -123.62890 2576 ft 191 kts 98°
2026-05-03 23:03 48.68467 -123.60918 2351 ft 192 kts 99°
2026-05-03 23:04 48.68159 -123.58955 2194 ft 189 kts 107°
2026-05-03 23:04 48.67695 -123.57090 1967 ft 192 kts 112°
2026-05-03 23:04 48.67238 -123.55132 1578 ft 201 kts 104°
2026-05-03 23:04 48.66916 -123.53076 1364 ft 200 kts 101°
2026-05-03 23:05 48.66590 -123.51121 1080 ft 185 kts 104°
2026-05-03 23:05 48.66228 -123.49350 874 ft 164 kts 105°
2026-05-03 23:05 48.65912 -123.47784 588 ft 147 kts 104°
2026-05-03 23:05 48.65655 -123.46383 468 ft 129 kts 103°
2026-05-03 23:06 48.65424 -123.45108 288 ft 122 kts 105°
2026-05-03 23:06 48.65151 -123.43825 605 ft 133 kts 105°
2026-05-03 23:06 48.64851 -123.42473 1060 ft 137 kts 108°
2026-05-03 23:06 48.64541 -123.41113 1599 ft 135 kts 105°
2026-05-03 23:07 48.64256 -123.39812 2274 ft 129 kts 106°
2026-05-03 23:07 48.63948 -123.38477 2706 ft 137 kts 107°
2026-05-03 23:07 48.63651 -123.37097 3068 ft 150 kts 105°
2026-05-03 23:07 48.63332 -123.35445 3087 ft 175 kts 103°
2026-05-03 23:08 48.63186 -123.33579 3124 ft 184 kts 69°
2026-05-03 23:08 48.64021 -123.32381 3732 ft 152 kts 18°
2026-05-03 23:08 48.65010 -123.31949 4057 ft 161 kts 15°
2026-05-03 23:08 48.66119 -123.31500 4057 ft 170 kts 12°
2026-05-03 23:09 48.67284 -123.31081 4068 ft 173 kts 13°
2026-05-03 23:09 48.68465 -123.30639 4057 ft 176 kts 13°
2026-05-03 23:09 48.69662 -123.30225 4048 ft 177 kts
2026-05-03 23:09 48.70874 -123.30603 3949 ft 181 kts 334°
2026-05-03 23:10 48.71926 -123.31560 4015 ft 178 kts 326°
2026-05-03 23:10 48.72914 -123.32669 4096 ft 176 kts 321°
2026-05-03 23:10 48.73876 -123.33904 4009 ft 181 kts 318°
2026-05-03 23:10 48.74797 -123.35198 3995 ft 179 kts 316°
2026-05-03 23:11 48.75603 -123.36634 4047 ft 177 kts 308°
2026-05-03 23:11 48.76313 -123.38177 4028 ft 180 kts 300°
2026-05-03 23:11 48.76854 -123.39900 4058 ft 179 kts 296°
2026-05-03 23:11 48.77285 -123.41433 3416 ft 173 kts 291°
2026-05-03 23:12 48.77640 -123.42876 4039 ft 142 kts 293°
2026-05-03 23:12 48.78125 -123.44330 3910 ft 165 kts 304°
2026-05-03 23:12 48.78725 -123.45823 3993 ft 167 kts 301°
2026-05-03 23:12 48.79362 -123.47304 4062 ft 168 kts 310°
2026-05-03 23:13 48.80136 -123.48694 4012 ft 176 kts 311°
2026-05-03 23:13 48.80865 -123.50199 3907 ft 182 kts 307°
2026-05-03 23:13 48.81619 -123.51702 3995 ft 177 kts 309°
2026-05-03 23:13 48.82401 -123.53080 4089 ft 163 kts 314°
2026-05-03 23:14 48.83116 -123.54325 4120 ft 149 kts 312°
2026-05-03 23:14 48.83759 -123.55529 4064 ft 145 kts 310°
2026-05-03 23:14 48.84404 -123.56771 4043 ft 152 kts 305°
2026-05-03 23:14 48.84988 -123.58152 4023 ft 158 kts 300°
2026-05-03 23:15 48.85580 -123.59573 4054 ft 159 kts 304°
2026-05-03 23:15 48.86238 -123.60889 4093 ft 160 kts 307°